Terminal Aerodrome Forecast
Issued by NWS Wakefield, VA

Home | Current Version | Previous Version | Text Only | Print | Product List | Glossary On
Versions: 1 2 3 4 5 6 7 8 9 10 11 12 13 14 15 16 17 18 19 20 21 22 23 24 25 26 27 28 29
398
FTUS41 KAKQ 261000 AAC
TAFRIC
TAF AMD
KRIC 261000Z 2610/2706 32005KT 1 1/2SM -DZ BR OVC005
      TEMPO 2610/2612 3/4SM -DZ BR
     FM261200 31005KT 4SM BR OVC007
     FM261400 31006KT P6SM OVC015
     FM261700 30006KT P6SM BKN025
     FM261800 27004KT P6SM BKN045=

USA.gov is the U.S. government's official web portal to all federal, state and local government web resources and services.